Time;durP1;ratioP1;P1;durP2;ratioP2;P2;SDS_P1;SDS_P2;PMS_P1;PMS_P2;Temp;Humidity;BMP_temperature;BMP_pressure;BME280_temperature;BME280_humidity;BME280_pressure;Samples;Min_cycle;Max_cycle;Signal;HPM_P1;HPM_P2
2022/01/19 00:01:04;;;;;;;0.20;0.10;;;;;;;5.89;99.39;101939.28;4982701;28;20826;-53
2022/01/19 00:03:31;;;;;;;0.20;0.10;;;;;;;5.85;100.00;101940.09;4995388;28;20967;-53
2022/01/19 00:05:58;;;;;;;0.20;0.20;;;;;;;5.79;99.86;101943.53;4994765;28;20519;-53
2022/01/19 00:08:26;;;;;;;0.20;0.20;;;;;;;5.80;99.95;101936.50;4983774;28;20489;-53
2022/01/19 00:10:53;;;;;;;0.20;0.10;;;;;;;5.91;99.80;101945.53;4993681;28;20499;-54
2022/01/19 00:13:20;;;;;;;0.20;0.10;;;;;;;5.83;99.39;101932.16;4984596;28;20474;-54
2022/01/19 00:15:47;;;;;;;0.20;0.13;;;;;;;5.75;99.77;101922.34;4995250;28;20492;-53
2022/01/19 00:18:17;;;;;;;0.20;0.10;;;;;;;5.81;99.54;101917.19;4986713;28;20462;-53
2022/01/19 00:20:44;;;;;;;0.20;0.20;;;;;;;5.84;99.75;101901.41;4990546;28;20453;-53
2022/01/19 00:23:11;;;;;;;0.20;0.20;;;;;;;5.77;100.00;101892.50;4995129;28;20900;-53
2022/01/19 00:25:38;;;;;;;0.20;0.20;;;;;;;5.89;99.31;101879.50;4982059;28;20551;-53
2022/01/19 00:28:04;;;;;;;0.20;0.10;;;;;;;5.91;99.85;101876.94;4995308;28;20454;-54
2022/01/19 00:30:31;;;;;;;0.20;0.20;;;;;;;5.88;100.00;101875.06;4992157;28;20477;-53
2022/01/19 00:32:58;;;;;;;0.20;0.10;;;;;;;5.96;99.79;101884.91;4984994;28;21025;-53
2022/01/19 00:35:25;;;;;;;0.20;0.20;;;;;;;5.95;100.00;101894.59;4995222;28;20496;-53
2022/01/19 00:37:52;;;;;;;0.20;0.10;;;;;;;6.08;99.92;101899.19;4985266;28;20450;-53
2022/01/19 00:40:19;;;;;;;0.20;0.10;;;;;;;5.97;99.79;101899.88;4989892;28;20574;-53
2022/01/19 00:42:46;;;;;;;0.20;0.10;;;;;;;6.03;99.84;101906.16;4985391;28;20504;-55
2022/01/19 00:45:15;;;;;;;0.20;0.10;;;;;;;6.20;99.17;101907.31;4994835;28;21028;-53
2022/01/19 00:47:43;;;;;;;0.20;0.13;;;;;;;6.39;98.84;101904.94;4984336;28;20454;-54
2022/01/19 00:50:16;;;;;;;0.20;0.10;;;;;;;6.13;98.36;101909.81;4993106;28;20528;-53
2022/01/19 00:52:42;;;;;;;0.30;0.20;;;;;;;6.21;99.37;101905.56;4994824;28;20539;-53
2022/01/19 00:55:12;;;;;;;3.23;3.03;;;;;;;6.16;99.72;101909.84;4981495;28;20445;-53
2022/01/19 00:57:39;;;;;;;0.20;0.20;;;;;;;6.14;99.86;101898.38;4994817;28;20462;-54
2022/01/19 01:00:10;;;;;;;0.20;0.10;;;;;;;6.19;100.00;101891.44;4988578;28;20458;-53
2022/01/19 01:02:36;;;;;;;1.13;1.13;;;;;;;6.22;99.87;101894.13;4988576;28;20477;-53
2022/01/19 01:05:04;;;;;;;0.20;0.10;;;;;;;6.30;99.60;101883.66;4994618;28;20515;-53
2022/01/19 01:07:33;;;;;;;0.20;0.20;;;;;;;6.13;100.00;101880.78;4981387;28;20458;-53
2022/01/19 01:10:00;;;;;;;0.20;0.20;;;;;;;6.18;99.82;101877.34;4994389;28;20445;-53
2022/01/19 01:12:43;;;;;;;0.20;0.10;;;;;;;6.05;99.69;101878.03;4979777;28;20532;-53
2022/01/19 01:18:37;;;;;;;0.20;0.20;;;;;;;5.75;100.00;101864.28;4988557;28;20450;-53
2022/01/19 01:20:47;;;;;;;0.20;0.10;;;;;;;5.73;100.00;101866.03;4987498;28;20470;-53
2022/01/19 01:23:14;;;;;;;0.20;0.10;;;;;;;5.71;100.00;101863.38;4984098;28;20469;-53
2022/01/19 01:25:40;;;;;;;0.20;0.10;;;;;;;5.67;100.00;101853.63;4980746;28;20592;-53
2022/01/19 01:28:08;;;;;;;0.20;0.10;;;;;;;5.63;100.00;101843.91;4994092;28;20457;-53
2022/01/19 01:30:36;;;;;;;0.20;0.20;;;;;;;5.57;100.00;101835.88;4990762;28;20505;-53
2022/01/19 01:33:03;;;;;;;0.20;0.10;;;;;;;5.51;100.00;101812.94;4984192;28;20901;-53
2022/01/19 01:35:30;;;;;;;0.20;0.20;;;;;;;5.60;100.00;101804.25;4993801;28;20446;-54
2022/01/19 01:37:57;;;;;;;0.20;0.10;;;;;;;5.57;100.00;101801.59;4984164;28;20461;-53
2022/01/19 01:40:25;;;;;;;0.20;0.10;;;;;;;5.56;100.00;101802.44;4988989;28;20981;-53
2022/01/19 01:42:56;;;;;;;0.20;0.10;;;;;;;5.63;100.00;101813.13;4984903;28;20845;-53
2022/01/19 01:45:28;;;;;;;0.20;0.10;;;;;;;5.45;100.00;101818.09;4993636;28;20493;-52
2022/01/19 01:48:19;;;;;;;0.20;0.10;;;;;;;5.45;100.00;101833.03;4981743;28;20450;-52
2022/01/19 01:53:31;;;;;;;0.20;0.20;;;;;;;5.52;100.00;101834.91;4980491;28;20469;-53
2022/01/19 01:56:10;;;;;;;0.20;0.10;;;;;;;5.55;100.00;101822.66;4993505;28;20969;-52
2022/01/19 01:58:41;;;;;;;0.20;0.10;;;;;;;5.62;100.00;101821.91;4981391;28;20561;-53
2022/01/19 02:01:09;;;;;;;0.20;0.10;;;;;;;5.60;100.00;101806.91;4980695;28;20450;-53
2022/01/19 02:03:39;;;;;;;0.20;0.10;;;;;;;5.70;100.00;101805.31;4993564;28;20465;-53
2022/01/19 02:16:46;;;;;;;0.20;0.10;;;;;;;6.00;100.00;101767.97;4981519;28;20445;-53
2022/01/19 02:22:00;;;;;;;0.30;0.20;;;;;;;5.94;100.00;101759.09;4993312;28;20477;-53
2022/01/19 02:24:31;;;;;;;0.20;0.10;;;;;;;5.81;100.00;101749.22;4987077;28;20486;-52
2022/01/19 02:27:12;;;;;;;0.20;0.13;;;;;;;5.91;100.00;101747.63;4987365;28;20831;-53
2022/01/19 02:40:30;;;;;;;0.20;0.10;;;;;;;5.63;100.00;101726.09;4988008;28;20447;-53
2022/01/19 02:50:40;;;;;;;0.20;0.10;;;;;;;5.53;100.00;101704.84;4982399;28;20449;-53
2022/01/19 02:53:07;;;;;;;0.20;0.13;;;;;;;5.51;100.00;101694.25;4979827;28;20540;-53
2022/01/19 02:55:36;;;;;;;0.20;0.20;;;;;;;5.42;100.00;101691.47;4992707;28;20449;-54
2022/01/19 02:58:03;;;;;;;0.60;0.50;;;;;;;5.62;100.00;101684.75;4990160;28;20500;-52
2022/01/19 03:08:47;;;;;;;0.20;0.20;;;;;;;5.45;100.00;101656.34;4992735;28;20520;-53
2022/01/19 03:11:19;;;;;;;0.20;0.10;;;;;;;5.43;100.00;101652.81;4988924;28;20481;-53
2022/01/19 03:13:47;;;;;;;0.20;0.10;;;;;;;5.47;100.00;101651.97;4984484;28;20879;-53
2022/01/19 03:16:16;;;;;;;0.20;0.17;;;;;;;5.55;100.00;101647.72;4992573;28;20480;-53
2022/01/19 03:18:43;;;;;;;0.20;0.10;;;;;;;5.71;100.00;101648.81;4992740;28;20544;-53
2022/01/19 03:21:11;;;;;;;0.20;0.20;;;;;;;5.53;100.00;101657.34;4976627;28;20540;-53
2022/01/19 03:23:37;;;;;;;0.20;0.20;;;;;;;5.58;100.00;101650.38;4993034;28;20461;-53
2022/01/19 03:26:06;;;;;;;0.20;0.10;;;;;;;5.64;99.67;101648.75;4986317;28;20544;-53
2022/01/19 03:28:33;;;;;;;0.20;0.10;;;;;;;5.38;100.00;101625.50;4986262;28;20453;-53
2022/01/19 03:31:01;;;;;;;0.30;0.30;;;;;;;5.26;100.00;101616.56;4992567;28;20955;-53
2022/01/19 03:33:29;;;;;;;0.20;0.10;;;;;;;5.13;100.00;101609.31;4979138;28;20478;-53
2022/01/19 03:35:55;;;;;;;0.20;0.10;;;;;;;5.09;100.00;101601.38;4992544;28;20446;-53
2022/01/19 03:38:22;;;;;;;0.20;0.10;;;;;;;4.99;100.00;101592.44;4992576;28;20457;-53
2022/01/19 03:40:49;;;;;;;0.63;0.50;;;;;;;4.82;100.00;101596.56;4985353;28;20450;-52
2022/01/19 03:43:15;;;;;;;0.20;0.10;;;;;;;4.59;100.00;101590.91;4986904;28;20544;-52
2022/01/19 03:45:50;;;;;;;0.20;0.10;;;;;;;4.39;100.00;101583.56;4992412;28;20493;-52
2022/01/19 03:48:42;;;;;;;0.20;0.20;;;;;;;4.33;100.00;101578.19;4979151;28;20453;-53
2022/01/19 03:51:10;;;;;;;0.20;0.10;;;;;;;4.20;100.00;101576.19;4992715;28;20484;-53
2022/01/19 03:53:37;;;;;;;0.20;0.20;;;;;;;4.03;100.00;101570.63;4986985;28;20451;-53
2022/01/19 03:56:04;;;;;;;0.20;0.10;;;;;;;4.07;100.00;101564.53;4986949;28;20496;-53
2022/01/19 03:58:31;;;;;;;0.20;0.20;;;;;;;4.00;100.00;101562.69;4995786;28;20835;-53
2022/01/19 04:00:59;;;;;;;0.20;0.10;;;;;;;4.12;100.00;101560.28;4983318;28;20489;-53
2022/01/19 04:06:19;;;;;;;0.20;0.10;;;;;;;4.29;100.00;101565.84;4993230;28;20919;-52
2022/01/19 04:08:46;;;;;;;0.20;0.10;;;;;;;4.05;100.00;101562.75;4986107;28;20446;-53
2022/01/19 04:11:14;;;;;;;0.20;0.10;;;;;;;4.31;100.00;101586.91;4991967;28;20466;-53
2022/01/19 04:14:21;;;;;;;0.20;0.10;;;;;;;3.96;100.00;101576.59;4986572;28;20881;-53
2022/01/19 04:16:33;;;;;;;0.80;0.80;;;;;;;4.05;100.00;101583.78;4983619;28;20457;-53
2022/01/19 04:19:21;;;;;;;0.20;0.10;;;;;;;3.89;100.00;101577.38;4982437;28;20516;-53
2022/01/19 04:21:50;;;;;;;0.20;0.10;;;;;;;3.70;100.00;101565.59;4995148;28;20505;-52
2022/01/19 04:24:17;;;;;;;0.20;0.10;;;;;;;3.46;100.00;101544.06;4990088;28;20485;-53
2022/01/19 04:26:46;;;;;;;0.20;0.10;;;;;;;3.75;100.00;101547.28;4987691;28;20507;-53
2022/01/19 04:29:12;;;;;;;0.20;0.10;;;;;;;3.77;100.00;101540.31;4994223;28;20827;-53
2022/01/19 04:31:39;;;;;;;0.93;0.93;;;;;;;3.30;100.00;101532.38;4981238;28;20478;-53
2022/01/19 04:34:07;;;;;;;0.20;0.20;;;;;;;3.06;100.00;101535.34;4995269;28;20863;-55
2022/01/19 04:45:49;;;;;;;0.20;0.10;;;;;;;3.06;100.00;101516.97;4995000;28;20441;-55
2022/01/19 05:04:08;;;;;;;0.20;0.10;;;;;;;2.95;100.00;101553.47;4986133;28;20460;-56
2022/01/19 05:06:39;;;;;;;0.20;0.10;;;;;;;2.93;100.00;101543.81;4994030;28;21027;-55
2022/01/19 05:09:12;;;;;;;0.20;0.10;;;;;;;3.05;100.00;101543.19;4989420;28;20532;-55
2022/01/19 05:14:23;;;;;;;0.20;0.10;;;;;;;3.24;100.00;101521.72;4991307;28;20950;-55
2022/01/19 05:16:50;;;;;;;0.20;0.10;;;;;;;3.38;100.00;101525.50;4994517;28;20450;-55
2022/01/19 05:19:16;;;;;;;0.20;0.10;;;;;;;3.50;100.00;101532.75;4981030;28;20554;-55
2022/01/19 05:21:43;;;;;;;0.20;0.10;;;;;;;3.40;100.00;101518.53;4994264;28;20564;-56
2022/01/19 05:24:10;;;;;;;0.20;0.20;;;;;;;3.38;100.00;101519.38;4989802;28;20454;-58
2022/01/19 05:26:37;;;;;;;0.20;0.10;;;;;;;3.36;100.00;101523.72;4985633;28;20528;-57
2022/01/19 05:29:04;;;;;;;0.20;0.10;;;;;;;3.44;100.00;101527.41;4994301;28;20997;-57
2022/01/19 05:31:31;;;;;;;0.20;0.10;;;;;;;3.58;100.00;101532.94;4982574;28;20517;-56
2022/01/19 05:33:58;;;;;;;1.03;0.93;;;;;;;3.67;100.00;101528.72;4992893;28;20500;-56
2022/01/19 05:36:25;;;;;;;0.20;0.10;;;;;;;4.42;100.00;101536.22;4993882;28;20449;-55
2022/01/19 05:38:51;;;;;;;0.20;0.10;;;;;;;4.08;100.00;101534.75;4981628;28;20958;-56
2022/01/19 05:41:21;;;;;;;0.20;0.10;;;;;;;3.92;100.00;101539.72;4982733;28;20454;-57
2022/01/19 05:43:48;;;;;;;0.93;0.93;;;;;;;3.76;100.00;101531.53;4993075;28;20453;-56
2022/01/19 05:46:14;;;;;;;0.60;0.60;;;;;;;3.67;100.00;101526.09;4993666;28;20530;-56
2022/01/19 05:48:41;;;;;;;0.20;0.10;;;;;;;3.47;100.00;101528.34;4980724;28;20458;-56
2022/01/19 05:51:08;;;;;;;1.63;1.53;;;;;;;3.39;100.00;101519.41;4993789;28;20454;-57
2022/01/19 05:53:34;;;;;;;0.20;0.10;;;;;;;3.13;100.00;101515.34;4988024;28;20462;-56
2022/01/19 05:56:01;;;;;;;0.20;0.20;;;;;;;2.90;100.00;101507.88;4986186;28;20446;-55
2022/01/19 05:58:28;;;;;;;0.40;0.40;;;;;;;2.93;100.00;101507.03;4993442;28;20465;-57
2022/01/19 06:00:55;;;;;;;0.20;0.10;;;;;;;2.91;100.00;101512.25;4981433;28;20482;-55
2022/01/19 06:03:21;;;;;;;0.30;0.20;;;;;;;2.83;100.00;101510.31;4992840;28;20469;-55
2022/01/19 06:05:48;;;;;;;0.20;0.20;;;;;;;2.85;100.00;101503.34;4993391;28;20564;-56
2022/01/19 06:08:29;;;;;;;0.20;0.10;;;;;;;2.87;100.00;101509.50;4978955;28;20457;-56
2022/01/19 06:10:56;;;;;;;0.20;0.10;;;;;;;2.55;100.00;101495.66;4990965;28;20819;-57
2022/01/19 06:13:24;;;;;;;0.20;0.10;;;;;;;2.57;100.00;101493.97;4982001;28;20998;-57
2022/01/19 06:15:51;;;;;;;0.20;0.10;;;;;;;2.45;100.00;101484.06;4993391;28;20450;-54
2022/01/19 06:18:19;;;;;;;0.20;0.10;;;;;;;2.39;100.00;101489.16;4983635;28;20482;-54
2022/01/19 06:20:45;;;;;;;0.20;0.10;;;;;;;2.40;100.00;101488.31;4989296;28;20461;-55
2022/01/19 06:23:12;;;;;;;0.20;0.10;;;;;;;2.49;100.00;101485.03;4982991;28;20536;-55
2022/01/19 06:25:39;;;;;;;0.20;0.10;;;;;;;2.41;100.00;101481.34;4980255;28;20489;-55
2022/01/19 06:28:06;;;;;;;0.20;0.10;;;;;;;2.29;100.00;101477.56;4993041;28;21013;-55
2022/01/19 06:30:33;;;;;;;0.20;0.10;;;;;;;2.26;100.00;101469.63;4989653;28;20517;-54
2022/01/19 06:33:00;;;;;;;0.20;0.10;;;;;;;2.12;100.00;101470.13;4983374;28;20473;-54
2022/01/19 06:35:27;;;;;;;0.20;0.10;;;;;;;2.13;100.00;101461.41;4992868;28;20445;-55
2022/01/19 06:37:54;;;;;;;0.20;0.13;;;;;;;2.12;100.00;101455.28;4982992;28;20598;-55
2022/01/19 06:40:25;;;;;;;0.30;0.20;;;;;;;2.02;100.00;101454.16;4987803;28;20455;-55
2022/01/19 06:42:54;;;;;;;0.20;0.10;;;;;;;1.87;100.00;101459.03;4984419;28;20472;-57
2022/01/19 06:45:22;;;;;;;0.20;0.10;;;;;;;2.15;100.00;101457.97;4992762;28;20837;-57
2022/01/19 06:47:50;;;;;;;0.20;0.10;;;;;;;2.13;100.00;101451.81;4981340;28;20455;-56
2022/01/19 06:50:19;;;;;;;0.20;0.10;;;;;;;2.14;100.00;101453.59;4991628;28;20453;-55
2022/01/19 06:52:47;;;;;;;0.20;0.10;;;;;;;2.10;100.00;101441.25;4992864;28;20578;-55
2022/01/19 06:55:15;;;;;;;0.20;0.20;;;;;;;2.11;100.00;101444.75;4979612;28;20500;-56
2022/01/19 06:57:44;;;;;;;0.20;0.10;;;;;;;1.97;100.00;101433.94;4992817;28;20450;-55
2022/01/19 07:00:12;;;;;;;0.20;0.20;;;;;;;1.93;100.00;101438.22;4986738;28;20454;-56
2022/01/19 07:02:38;;;;;;;0.20;0.10;;;;;;;1.90;100.00;101432.88;4986272;28;20473;-56
2022/01/19 07:05:06;;;;;;;0.20;0.10;;;;;;;1.83;100.00;101430.97;4992687;28;20500;-56
2022/01/19 07:07:32;;;;;;;0.20;0.20;;;;;;;1.68;100.00;101433.22;4979966;28;20509;-56
2022/01/19 07:09:59;;;;;;;0.20;0.10;;;;;;;1.75;100.00;101435.13;4992760;28;20807;-56
2022/01/19 07:12:26;;;;;;;0.20;0.10;;;;;;;1.71;100.00;101428.03;4979782;28;20561;-56
2022/01/19 07:14:53;;;;;;;0.20;0.10;;;;;;;1.66;100.00;101422.69;4991574;28;20795;-56
2022/01/19 07:17:19;;;;;;;0.20;0.10;;;;;;;1.68;100.00;101426.22;4991451;28;20453;-56
2022/01/19 07:19:47;;;;;;;0.20;0.10;;;;;;;1.72;100.00;101427.19;4981086;28;20457;-56
2022/01/19 07:22:15;;;;;;;0.20;0.10;;;;;;;1.80;100.00;101420.44;4992363;28;20994;-56
2022/01/19 07:24:43;;;;;;;0.20;0.10;;;;;;;1.77;100.00;101421.19;4984594;28;20458;-55
2022/01/19 07:27:09;;;;;;;0.20;0.10;;;;;;;1.78;100.00;101417.78;4987963;28;20552;-56
2022/01/19 07:29:36;;;;;;;1.13;1.13;;;;;;;1.61;100.00;101410.31;4993848;28;20528;-56
2022/01/19 07:32:03;;;;;;;0.20;0.20;;;;;;;1.59;100.00;101412.00;4983020;28;20485;-56
2022/01/19 07:34:30;;;;;;;0.20;0.10;;;;;;;1.46;100.00;101410.78;4996174;28;20453;-56
2022/01/19 07:36:57;;;;;;;0.20;0.10;;;;;;;1.46;100.00;101410.78;4993961;28;20495;-56
2022/01/19 07:39:23;;;;;;;0.20;0.10;;;;;;;1.43;100.00;101410.72;4987606;28;20816;-56
2022/01/19 07:41:53;;;;;;;0.20;0.20;;;;;;;1.45;100.00;101411.63;4982837;28;20900;-56
2022/01/19 07:44:20;;;;;;;0.20;0.10;;;;;;;1.37;100.00;101408.84;4996052;28;20954;-56
2022/01/19 07:46:48;;;;;;;0.20;0.10;;;;;;;1.38;100.00;101408.00;4991133;28;20536;-56
2022/01/19 07:49:15;;;;;;;1.03;1.03;;;;;;;1.41;100.00;101404.56;4986898;28;20946;-56
2022/01/19 07:51:42;;;;;;;0.20;0.10;;;;;;;1.30;100.00;101401.66;4995864;28;20503;-56
2022/01/19 07:54:08;;;;;;;0.20;0.10;;;;;;;1.28;100.00;101407.69;4985529;28;20454;-56
2022/01/19 07:56:35;;;;;;;1.23;1.23;;;;;;;1.33;100.00;101398.22;4993234;28;20449;-56
2022/01/19 07:59:02;;;;;;;0.30;0.20;;;;;;;1.42;100.00;101390.63;4996174;28;20465;-55
2022/01/19 08:01:31;;;;;;;0.20;0.10;;;;;;;1.48;100.00;101386.41;4982742;28;20461;-55
2022/01/19 08:03:59;;;;;;;0.20;0.20;;;;;;;1.53;100.00;101381.31;4995748;28;20485;-56
2022/01/19 08:06:26;;;;;;;0.20;0.10;;;;;;;1.58;100.00;101378.78;4990589;28;20544;-56
2022/01/19 08:08:54;;;;;;;0.20;0.10;;;;;;;1.73;100.00;101385.28;4987986;28;20499;-56
2022/01/19 08:11:21;;;;;;;0.77;0.77;;;;;;;1.75;100.00;101380.97;4990435;28;20454;-55
2022/01/19 08:13:47;;;;;;;0.20;0.10;;;;;;;1.77;100.00;101378.38;4988190;28;20458;-56
2022/01/19 08:16:16;;;;;;;0.20;0.10;;;;;;;1.79;100.00;101376.72;4995600;28;20981;-56
2022/01/19 08:18:43;;;;;;;0.20;0.10;;;;;;;1.87;100.00;101376.88;4983010;28;20466;-56
2022/01/19 08:21:11;;;;;;;0.20;0.10;;;;;;;1.99;100.00;101374.56;4995126;28;20485;-55
2022/01/19 08:23:38;;;;;;;0.20;0.10;;;;;;;1.98;100.00;101370.16;4995114;28;20461;-56
2022/01/19 08:26:06;;;;;;;0.30;0.20;;;;;;;1.94;100.00;101366.59;4982842;28;20493;-56
2022/01/19 08:28:33;;;;;;;0.20;0.20;;;;;;;1.99;100.00;101362.34;4995829;28;20454;-56
2022/01/19 08:30:59;;;;;;;0.20;0.10;;;;;;;2.00;100.00;101365.84;4988542;28;20466;-56
2022/01/19 08:33:26;;;;;;;1.47;0.83;;;;;;;1.99;100.00;101364.97;4989527;28;20508;-55
2022/01/19 08:35:53;;;;;;;0.20;0.10;;;;;;;2.10;100.00;101364.34;4995275;28;21009;-56
2022/01/19 08:38:19;;;;;;;0.20;0.10;;;;;;;2.30;100.00;101365.66;4982794;28;20504;-56
2022/01/19 08:40:46;;;;;;;0.20;0.10;;;;;;;2.46;100.00;101370.38;4987085;28;20454;-56
2022/01/19 08:43:14;;;;;;;0.20;0.10;;;;;;;2.54;100.00;101376.69;4990111;28;20531;-56
2022/01/19 08:45:41;;;;;;;0.20;0.10;;;;;;;2.67;100.00;101388.34;4995003;28;20862;-56
2022/01/19 08:48:08;;;;;;;0.20;0.10;;;;;;;2.68;100.00;101376.97;4981819;28;20454;-56
2022/01/19 08:50:35;;;;;;;0.20;0.10;;;;;;;2.76;100.00;101371.91;4994849;28;20484;-56
2022/01/19 08:53:02;;;;;;;0.20;0.10;;;;;;;2.78;100.00;101381.56;4993071;28;21060;-56
2022/01/19 08:55:29;;;;;;;0.20;0.10;;;;;;;2.97;100.00;101372.31;4983971;28;20445;-55
2022/01/19 08:57:56;;;;;;;0.20;0.10;;;;;;;3.11;100.00;101370.84;4994607;28;20449;-56
2022/01/19 09:00:23;;;;;;;0.20;0.20;;;;;;;3.16;100.00;101373.56;4986025;28;20453;-55
2022/01/19 09:02:50;;;;;;;0.20;0.10;;;;;;;3.24;100.00;101370.22;4990924;28;20497;-56
2022/01/19 09:05:17;;;;;;;0.20;0.10;;;;;;;3.40;100.00;101362.63;4993482;28;20484;-56
2022/01/19 09:07:44;;;;;;;0.20;0.10;;;;;;;3.39;100.00;101358.22;4981654;28;20496;-56
2022/01/19 09:10:12;;;;;;;0.60;0.60;;;;;;;3.43;100.00;101347.81;4994987;28;20880;-56
2022/01/19 09:12:40;;;;;;;0.20;0.20;;;;;;;3.44;100.00;101333.81;4981264;28;20560;-53
2022/01/19 09:15:09;;;;;;;0.20;0.20;;;;;;;3.28;100.00;101329.13;4994350;28;20445;-53
2022/01/19 09:17:36;;;;;;;0.20;0.10;;;;;;;3.26;100.00;101322.94;4990943;28;20450;-55
2022/01/19 09:20:06;;;;;;;0.20;0.10;;;;;;;3.13;100.00;101313.97;4984915;28;20457;-56
2022/01/19 09:22:34;;;;;;;0.20;0.10;;;;;;;3.21;100.00;101312.38;4994208;28;20501;-56
2022/01/19 09:25:01;;;;;;;0.20;0.10;;;;;;;3.05;100.00;101314.72;4983389;28;21027;-56
2022/01/19 09:27:28;;;;;;;0.30;0.20;;;;;;;2.81;100.00;101310.75;4992375;28;20971;-55
2022/01/19 09:29:55;;;;;;;0.30;0.23;;;;;;;3.09;100.00;101319.16;4994302;28;20446;-55
2022/01/19 09:32:22;;;;;;;0.20;0.10;;;;;;;3.25;100.00;101329.94;4980999;28;20478;-54
2022/01/19 09:34:55;;;;;;;0.20;0.10;;;;;;;3.35;100.00;101328.38;4994448;28;20453;-54
2022/01/19 09:37:23;;;;;;;0.20;0.10;;;;;;;3.39;100.00;101322.31;4988457;28;20443;-54
2022/01/19 09:39:50;;;;;;;0.20;0.10;;;;;;;3.46;100.00;101312.81;4988625;28;20453;-54
2022/01/19 09:42:17;;;;;;;3.73;1.93;;;;;;;3.43;100.00;101312.75;4980967;28;20475;-54
2022/01/19 09:44:43;;;;;;;0.20;0.10;;;;;;;3.55;100.00;101305.06;4993904;28;20449;-54
2022/01/19 09:47:10;;;;;;;0.20;0.10;;;;;;;3.71;100.00;101303.56;4986767;28;20498;-54
2022/01/19 09:49:37;;;;;;;0.63;0.63;;;;;;;3.78;100.00;101305.44;4987083;28;20507;-54
2022/01/19 09:52:04;;;;;;;0.20;0.20;;;;;;;3.72;100.00;101306.22;4993974;28;20477;-54
2022/01/19 09:54:31;;;;;;;0.77;0.73;;;;;;;3.92;100.00;101296.00;4981050;28;20458;-55
2022/01/19 09:56:59;;;;;;;0.20;0.10;;;;;;;3.96;100.00;101295.16;4980790;28;20486;-55
2022/01/19 09:59:26;;;;;;;0.20;0.10;;;;;;;4.01;100.00;101297.88;4980415;28;20461;-54
2022/01/19 10:01:56;;;;;;;0.30;0.20;;;;;;;4.18;100.00;101298.13;4993558;28;20552;-54
2022/01/19 10:04:31;;;;;;;0.20;0.10;;;;;;;4.28;100.00;101298.25;4993276;28;20458;-55
2022/01/19 10:07:10;;;;;;;0.30;0.20;;;;;;;4.39;100.00;101301.03;4982834;28;20484;-54
2022/01/19 10:10:01;;;;;;;0.30;0.20;;;;;;;4.42;100.00;101309.84;4993507;28;20465;-55
2022/01/19 10:18:17;;;;;;;0.30;0.20;;;;;;;4.52;100.00;101296.78;4982711;28;20446;-54
2022/01/19 10:20:46;;;;;;;0.40;0.30;;;;;;;4.54;100.00;101295.97;4990693;28;20501;-54
2022/01/19 10:23:36;;;;;;;0.20;0.20;;;;;;;4.37;100.00;101289.59;4984999;28;20842;-54
2022/01/19 10:26:10;;;;;;;0.27;0.20;;;;;;;4.44;100.00;101289.69;4981555;28;20971;-55
2022/01/19 10:28:54;;;;;;;0.20;0.13;;;;;;;4.48;100.00;101287.97;4980762;28;20888;-54
2022/01/19 10:31:21;;;;;;;0.20;0.10;;;;;;;4.43;100.00;101290.56;4993346;28;20462;-55
2022/01/19 10:34:09;;;;;;;0.20;0.10;;;;;;;4.57;100.00;101276.69;4990235;28;20496;-52
2022/01/19 10:36:49;;;;;;;0.20;0.10;;;;;;;4.53;100.00;101281.03;4974087;28;20513;-52
2022/01/19 10:39:18;;;;;;;0.20;0.20;;;;;;;4.56;100.00;101275.81;4983587;28;20453;-52
2022/01/19 10:41:57;;;;;;;0.20;0.20;;;;;;;4.56;100.00;101278.44;4978501;28;20525;-52
2022/01/19 10:44:32;;;;;;;0.20;0.10;;;;;;;4.63;100.00;101272.34;4982632;28;20480;-52
2022/01/19 10:47:45;;;;;;;0.20;0.10;;;;;;;4.54;100.00;101274.91;4992976;28;20513;-52
2022/01/19 10:50:25;;;;;;;0.20;0.20;;;;;;;4.56;100.00;101273.16;4993146;28;20449;-52
2022/01/19 10:52:54;;;;;;;0.20;0.13;;;;;;;4.61;100.00;101270.59;4979872;28;20470;-54
2022/01/19 10:55:20;;;;;;;0.20;0.10;;;;;;;4.66;100.00;101264.53;4980385;28;20445;-52
2022/01/19 10:57:50;;;;;;;0.20;0.10;;;;;;;4.50;100.00;101253.78;4992842;28;20496;-52
2022/01/19 11:00:30;;;;;;;0.20;0.10;;;;;;;4.61;100.00;101254.78;4985659;28;20454;-52
2022/01/19 11:03:13;;;;;;;0.20;0.10;;;;;;;4.64;100.00;101252.19;4975870;28;20501;-52
2022/01/19 11:05:48;;;;;;;0.20;0.10;;;;;;;4.55;100.00;101244.19;4996000;28;20451;-52
2022/01/19 11:08:17;;;;;;;0.30;0.30;;;;;;;4.59;100.00;101252.13;4996770;28;20489;-52
2022/01/19 11:10:53;;;;;;;1.20;1.20;;;;;;;4.54;100.00;101248.59;4996925;28;20511;-52
2022/01/19 11:13:38;;;;;;;0.20;0.10;;;;;;;4.49;100.00;101247.63;4985534;28;20481;-52
2022/01/19 11:16:06;;;;;;;0.20;0.10;;;;;;;4.46;100.00;101245.84;4996787;28;20496;-52
2022/01/19 11:18:36;;;;;;;0.20;0.10;;;;;;;4.69;100.00;101248.75;4985518;28;20513;-52
2022/01/19 11:21:08;;;;;;;0.30;0.20;;;;;;;4.36;100.00;101249.22;4995441;28;20456;-54
2022/01/19 11:24:01;;;;;;;0.20;0.20;;;;;;;4.39;100.00;101251.91;4996643;28;20469;-52
2022/01/19 11:26:30;;;;;;;0.20;0.10;;;;;;;4.66;100.00;101253.06;4986970;28;20994;-52
2022/01/19 11:29:23;;;;;;;0.20;0.10;;;;;;;4.40;100.00;101256.31;4983397;28;20448;-52
2022/01/19 11:31:52;;;;;;;0.20;0.20;;;;;;;4.70;100.00;101244.38;4996354;28;20485;-52
2022/01/19 11:34:42;;;;;;;0.20;0.10;;;;;;;4.54;100.00;101240.69;4996478;28;20449;-52
2022/01/19 11:37:09;;;;;;;0.20;0.20;;;;;;;4.49;100.00;101244.09;4996349;28;20445;-52
2022/01/19 11:39:37;;;;;;;0.20;0.10;;;;;;;4.43;100.00;101229.13;4985613;28;20450;-51
2022/01/19 11:42:04;;;;;;;0.30;0.30;;;;;;;4.72;100.00;101226.81;4994635;28;20469;-52
2022/01/19 11:44:31;;;;;;;0.20;0.20;;;;;;;4.59;100.00;101217.03;4996345;28;20460;-52
2022/01/19 11:47:13;;;;;;;0.20;0.20;;;;;;;4.41;100.00;101201.94;4995471;28;20497;-52
2022/01/19 11:49:46;;;;;;;0.20;0.20;;;;;;;4.43;100.00;101193.19;4983198;28;20537;-52
2022/01/19 11:52:15;;;;;;;0.20;0.10;;;;;;;4.22;100.00;101187.66;4996418;28;20473;-52
2022/01/19 11:54:43;;;;;;;0.20;0.10;;;;;;;4.50;100.00;101183.56;4995984;28;20461;-52
2022/01/19 11:57:18;;;;;;;0.20;0.10;;;;;;;4.33;100.00;101172.88;4987278;28;20484;-52
2022/01/19 11:59:45;;;;;;;0.60;0.47;;;;;;;4.34;100.00;101169.38;4980698;28;20461;-52
2022/01/19 12:02:24;;;;;;;0.20;0.10;;;;;;;4.43;100.00;101158.97;4996132;28;20473;-53
2022/01/19 12:05:10;;;;;;;0.20;0.10;;;;;;;4.23;100.00;101151.69;4985597;28;20442;-52
2022/01/19 12:07:52;;;;;;;0.20;0.10;;;;;;;4.35;100.00;101144.81;4995823;28;20503;-53
2022/01/19 12:10:44;;;;;;;0.20;0.10;;;;;;;4.41;100.00;101142.28;4995902;28;20531;-52
2022/01/19 12:19:05;;;;;;;0.20;0.10;;;;;;;4.56;100.00;101119.59;4982699;28;20446;-52
2022/01/19 12:21:32;;;;;;;0.20;0.10;;;;;;;4.42;100.00;101111.56;4995516;28;20524;-52
2022/01/19 12:24:26;;;;;;;1.30;1.20;;;;;;;4.57;100.00;101109.06;4995788;28;20445;-52
2022/01/19 12:27:08;;;;;;;0.20;0.10;;;;;;;4.44;100.00;101105.44;4995535;28;20906;-52
2022/01/19 12:29:38;;;;;;;0.20;0.10;;;;;;;4.72;100.00;101092.53;4984550;28;20495;-52
2022/01/19 12:32:17;;;;;;;0.20;0.20;;;;;;;4.59;100.00;101088.03;4982277;28;20482;-52
2022/01/19 12:34:52;;;;;;;0.20;0.10;;;;;;;4.64;100.00;101092.44;4995586;28;20449;-53
2022/01/19 12:37:24;;;;;;;0.20;0.20;;;;;;;4.57;100.00;101088.00;4995387;28;20946;-52
2022/01/19 12:39:51;;;;;;;0.20;0.10;;;;;;;4.75;100.00;101087.28;4995384;28;20508;-52
2022/01/19 12:42:24;;;;;;;0.20;0.10;;;;;;;4.74;100.00;101082.88;4995807;28;20880;-52
2022/01/19 12:45:00;;;;;;;0.20;0.10;;;;;;;4.63;100.00;101079.28;4994131;28;20543;-52
2022/01/19 12:47:26;;;;;;;0.20;0.10;;;;;;;4.62;100.00;101075.75;4975790;28;20834;-52
2022/01/19 12:50:08;;;;;;;0.20;0.10;;;;;;;4.65;100.00;101082.78;4977841;28;20873;-52
2022/01/19 12:53:06;;;;;;;0.20;0.10;;;;;;;4.67;100.00;101073.19;4994891;28;20474;-52
2022/01/19 12:55:42;;;;;;;0.20;0.10;;;;;;;4.66;100.00;101074.03;4994241;28;20489;-52
2022/01/19 12:58:22;;;;;;;0.20;0.10;;;;;;;4.58;100.00;101066.09;4978714;28;20447;-52
2022/01/19 13:00:53;;;;;;;0.20;0.20;;;;;;;4.59;100.00;101066.97;4975375;28;20447;-52
2022/01/19 13:03:23;;;;;;;0.20;0.10;;;;;;;4.57;100.00;101063.44;4981511;28;20465;-53
2022/01/19 13:05:58;;;;;;;0.20;0.10;;;;;;;4.70;100.00;101060.03;4993689;28;20536;-54
2022/01/19 13:08:29;;;;;;;0.20;0.10;;;;;;;4.68;100.00;101059.16;4982742;28;20543;-52